Flight Track Log - Related Links

Times and Time Zones

All times are in EDT time to prevent confusion due to time zone crossing. See the GJS3707 flight status page for this flight to view local times or setup timezone preferences in your user account.


Time Position Orientation Groundspeed Altitude Reporting Facility
EDT Latitude Longitude Course Direction KTS MPH feet Rate Location/Type
Mon 04:00:41 PM 43.6003 -116.2886 81° East 195 224 4,900  Level Salt Lake Center
Mon 04:01:43 PM 43.6547 -116.3267 333° Northwest 220 253 7,000 1,805 Climbing Salt Lake Center
Mon 04:02:44 PM 43.7081 -116.2914 26° Northeast 242 278 8,600 1,707 Climbing Salt Lake Center
Mon 04:03:00 PM 43.6602 -115.5421 78° East  Level FlightAware Approximate
Mon 04:03:46 PM 43.7239 -116.1775 79° East 271 312 10,500  Level Salt Lake Center
Mon 04:04:00 PM 43.6786 -115.3689 83° East  Level FlightAware Approximate
Mon 04:04:48 PM 43.7364 -116.0708 81° East 291 335 12,100  Level Salt Lake Center
Mon 04:05:00 PM 43.7038 -115.1996 81° East  Level FlightAware Approximate
Mon 04:05:50 PM 43.7497 -115.9547 81° East 316 364 13,600  Level Salt Lake Center
Mon 04:06:52 PM 43.7658 -115.8028 82° East 356 410 14,800 1,122 Climbing Salt Lake Center
Mon 04:07:53 PM 43.7808 -115.6603 82° East 388 447 15,900 1,317 Climbing Salt Lake Center
Mon 04:08:55 PM 43.7989 -115.4853 82° East 410 472 17,500 1,694 Climbing Salt Lake Center
Mon 04:09:57 PM 43.8150 -115.3336 82° East 417 480 19,400 1,887 Climbing Salt Lake Center
Mon 04:10:59 PM 43.8331 -115.1550 82° East 421 484 21,400 1,694 Climbing Salt Lake Center
Mon 04:12:01 PM 43.8486 -115.0036 82° East 417 480 22,900 1,306 Climbing Salt Lake Center
Mon 04:13:03 PM 43.8667 -114.8197 82° East 435 501 24,100 1,024 Climbing Salt Lake Center
Mon 04:14:04 PM 43.9094 -114.6625 69° East 464 534 25,000 1,024 Climbing Salt Lake Center
Mon 04:15:06 PM 43.9736 -114.4803 64° Northeast 474 545 26,200 1,016 Climbing Salt Lake Center
Mon 04:16:08 PM 43.9911 -114.3092 82° East 474 545 27,100 968 Climbing Salt Lake Center
Mon 04:17:10 PM 44.0025 -114.1033 86° East 478 550 28,200 1,016 Climbing Salt Lake Center
Mon 04:18:12 PM 44.0106 -113.9269 86° East 478 550 29,200 1,024 Climbing Salt Lake Center
Mon 04:19:13 PM 44.0219 -113.7317 85° East 483 556 30,300 976 Climbing Salt Lake Center
Mon 04:20:15 PM 44.0311 -113.5519 86° East 486 559 31,200 871 Climbing Salt Lake Center
Mon 04:21:17 PM 44.0419 -113.3417 86° East 489 563 32,100 829 Climbing Salt Lake Center
Mon 04:22:18 PM 44.0492 -113.1594 87° East 493 567 32,900 683 Climbing Salt Lake Center
Mon 04:23:20 PM 44.0592 -112.9478 86° East 492 566 33,500 581 Climbing Salt Lake Center
Mon 04:24:22 PM 44.0658 -112.7642 87° East 497 572 34,100 484 Climbing Salt Lake Center
Mon 04:25:24 PM 44.0739 -112.5781 86° East 503 579 34,500 488 Climbing Salt Lake Center
Mon 04:26:25 PM 44.0819 -112.3594 87° East 508 585 35,100 537 Climbing Salt Lake Center
Mon 04:27:27 PM 44.0886 -112.1717 87° East 510 587 35,600 484 Climbing Salt Lake Center
Mon 04:28:29 PM 44.0917 -111.9561 89° East 503 579 36,100 484 Climbing Salt Lake Center
Mon 04:29:31 PM 44.0922 -111.7683 90° East 508 585 36,600 435 Climbing Salt Lake Center
Mon 04:30:33 PM 44.0933 -111.5497 90° East 510 587 37,000 195 Climbing Salt Lake Center
Mon 04:31:34 PM 44.0931 -111.3611 90° East 513 590 37,000  Level Salt Lake Center
Mon 04:32:36 PM 44.0936 -111.1397 90° East 517 595 37,000  Level Salt Lake Center
Mon 04:33:38 PM 44.0931 -110.9486 90° East 520 598 37,000  Level Salt Lake Center
Mon 04:34:40 PM 44.0925 -110.7239 90° East 522 601 37,000  Level Salt Lake Center
Mon 04:35:41 PM 44.0936 -110.5325 89° East 520 598 37,000  Level Salt Lake Center
Mon 04:36:43 PM 44.0914 -110.3094 91° East 518 596 37,000  Level Salt Lake Center
Mon 04:37:45 PM 44.0911 -110.1183 90° East 518 596 37,000  Level Salt Lake Center
Mon 04:38:47 PM 44.0883 -109.8953 91° East 518 596 37,000  Level Salt Lake Center
Mon 04:39:48 PM 44.0861 -109.7033 91° East 518 596 37,000  Level Salt Lake Center
Mon 04:40:50 PM 44.0831 -109.5117 91° East 519 597 37,000  Level Salt Lake Center
Mon 04:41:52 PM 44.0803 -109.2994 91° East 514 592 37,000  Level Salt Lake Center
Mon 04:42:54 PM 44.0747 -109.0750 92° East 519 597 37,000  Level Salt Lake Center
Mon 04:43:56 PM 44.0722 -108.8831 91° East 520 598 37,000  Level Salt Lake Center
Mon 04:44:57 PM 44.0681 -108.6603 91° East 519 597 37,000  Level Salt Lake Center
Mon 04:45:59 PM 44.0628 -108.4689 92° East 519 597 37,000  Level Salt Lake Center
Mon 04:47:01 PM 44.0581 -108.2453 92° East 520 598 37,000 48 Level Salt Lake Center
Mon 04:48:03 PM 44.0519 -108.0553 92° East 518 596 37,100 290 Climbing Salt Lake Center
Mon 04:49:05 PM 44.0483 -107.8683 91° East 511 588 37,600 537 Climbing Salt Lake Center
Mon 04:50:06 PM 44.0414 -107.6514 92° East 508 585 38,200 537 Climbing Salt Lake Center
Mon 04:51:08 PM 44.0369 -107.4664 92° East 504 580 38,700 387 Climbing Salt Lake Center
Mon 04:52:10 PM 44.0294 -107.2531 93° East 499 574 39,000 145 Climbing Salt Lake Center
Mon 04:53:12 PM 44.0228 -107.0703 93° East 498 573 39,000  Level Salt Lake Center
Mon 04:53:28 PM 44.0211 -107.0092 92° East 495 570 39,000  Level Denver Center
Mon 04:54:13 PM 44.0153 -106.8544 93° East 503 579 39,000  Level Salt Lake Center
Mon 04:55:15 PM 44.0086 -106.6683 93° East 505 581 39,000  Level Salt Lake Center
Mon 04:55:32 PM 44.0061 -106.6003 93° East 503 579 39,000  Level Denver Center
Mon 04:56:34 PM 44.0000 -106.4153 93° East 501 577 39,000  Level Denver Center
Mon 04:57:19 PM 44.0003 -106.2681 90° East 503 579 39,000  Level Salt Lake Center
Mon 04:58:20 PM 44.0047 -106.0744 88° East 504 580 39,000  Level Salt Lake Center
Mon 04:58:38 PM 44.0042 -106.0133 91° East 501 577 39,000  Level Denver Center
Mon 04:59:40 PM 44.0047 -105.8006 90° East 495 570 39,000  Level Denver Center
Mon 05:00:42 PM 44.0053 -105.6161 90° East 496 571 39,000  Level Denver Center
Mon 05:01:43 PM 44.0050 -105.4639 90° East 496 571 39,000  Level Denver Center
Mon 05:02:46 PM 44.0044 -105.2194 90° East 496 571 39,000  Level Denver Center
Mon 05:03:48 PM 44.0033 -105.0361 90° East 496 571 39,000  Level Denver Center
Mon 05:04:50 PM 44.0028 -104.8222 90° East 495 570 39,000  Level Denver Center
Mon 05:05:52 PM 44.0008 -104.6369 91° East 499 574 39,000  Level Denver Center
Mon 05:06:54 PM 43.9983 -104.4225 91° East 498 573 39,000  Level Denver Center
Mon 05:07:56 PM 43.9972 -104.2381 90° East 498 573 39,000  Level Denver Center
Mon 05:08:58 PM 43.9942 -104.0236 91° East 498 573 39,000  Level Denver Center
Mon 05:10:00 PM 43.9914 -103.8386 91° East 499 574 39,000  Level Denver Center
Mon 05:11:02 PM 43.9881 -103.6217 91° East 501 577 39,000  Level Denver Center
Mon 05:12:04 PM 43.9847 -103.4375 91° East 500 575 39,000  Level Denver Center
Mon 05:13:06 PM 43.9822 -103.2533 91° East 499 574 39,000  Level Denver Center
Mon 05:14:08 PM 43.9781 -103.0369 91° East 500 575 39,000  Level Denver Center
Mon 05:15:10 PM 43.9728 -102.8508 92° East 502 578 39,000  Level Denver Center
Mon 05:16:12 PM 43.9681 -102.6492 92° East 503 579 39,000  Level Denver Center
Mon 05:17:14 PM 43.9606 -102.4556 93° East 504 580 39,000  Level Denver Center
Mon 05:18:16 PM 43.9539 -102.2600 93° East 506 582 39,000  Level Denver Center
Mon 05:19:30 PM 43.9436 -102.0244 93° East 510 587 39,000  Level Denver Center
Mon 05:20:32 PM 43.9336 -101.7900 93° East 510 587 39,000 -242 Level Denver Center
Mon 05:21:34 PM 43.9322 -101.5997 91° East 501 577 38,500 -417 Descending Denver Center
Mon 05:22:27 PM 43.9250 -101.4403 94° East 510 587 38,200 -522 Descending Minneapolis Center
Mon 05:23:29 PM 43.9161 -101.1983 93° East 518 596 37,500 -532 Descending Minneapolis Center
Mon 05:24:31 PM 43.9072 -100.9958 93° East 526 605 37,100 -242 Descending Minneapolis Center
Mon 05:25:33 PM 43.8986 -100.7925 93° East 530 610 37,000 -49 Descending Minneapolis Center
Mon 05:26:34 PM 43.8903 -100.5919 93° East 527 606 37,000  Level Minneapolis Center
Mon 05:27:36 PM 43.8792 -100.3889 94° East 528 608 37,000  Level Minneapolis Center
Mon 05:28:38 PM 43.8694 -100.1878 94° East 528 608 37,000  Level Minneapolis Center
Mon 05:29:40 PM 43.8581 -99.9497 94° East 523 602 37,000  Level Minneapolis Center
Mon 05:30:42 PM 43.8467 -99.7492 94° East 523 602 37,000  Level Minneapolis Center
Mon 05:31:44 PM 43.8358 -99.5478 94° East 526 605 37,000  Level Minneapolis Center
Mon 05:32:46 PM 43.8253 -99.3478 94° East 524 603 37,000 -244 Level Minneapolis Center
Mon 05:33:47 PM 43.8136 -99.1478 95° East 524 603 36,500 -488 Descending Minneapolis Center
Mon 05:34:49 PM 43.8011 -98.9428 95° East 535 616 36,000 -484 Descending Minneapolis Center
Mon 05:35:51 PM 43.7886 -98.7369 95° East 538 619 35,500 -484 Descending Minneapolis Center
Mon 05:36:53 PM 43.7725 -98.4817 95° East 546 628 35,000 -244 Descending Minneapolis Center
Mon 05:37:54 PM 43.7592 -98.2739 95° East 544 626 35,000  Level Minneapolis Center
Mon 05:38:56 PM 43.7447 -98.0669 95° East 544 626 35,000  Level Minneapolis Center
Mon 05:39:58 PM 43.7294 -97.8611 96° East 541 623 35,000  Level Minneapolis Center
Mon 05:41:00 PM 43.7156 -97.6550 95° East 542 624 35,000  Level Minneapolis Center
Mon 05:42:01 PM 43.7003 -97.4503 96° East 541 623 35,000  Level Minneapolis Center
Mon 05:43:03 PM 43.6864 -97.2453 95° East 540 621 35,000  Level Minneapolis Center
Mon 05:44:05 PM 43.6678 -97.0036 96° East 533 613 35,000  Level Minneapolis Center
Mon 05:45:07 PM 43.6511 -96.8033 96° East 530 610 35,000  Level Minneapolis Center
Mon 05:46:09 PM 43.6253 -96.6078 100° East 526 605 35,000  Level Minneapolis Center
Mon 05:47:10 PM 43.5956 -96.4111 102° East 528 608 35,000  Level Minneapolis Center
Mon 05:48:12 PM 43.5658 -96.2161 102° East 527 606 35,000  Level Minneapolis Center
Mon 05:49:14 PM 43.5322 -95.9783 101° East 532 612 35,000  Level Minneapolis Center
Mon 05:50:16 PM 43.5119 -95.7769 98° East 535 616 35,000  Level Minneapolis Center
Mon 05:51:17 PM 43.4892 -95.5761 99° East 536 617 35,000  Level Minneapolis Center
Mon 05:52:19 PM 43.4675 -95.3761 98° East 533 613 35,000  Level Minneapolis Center
Mon 05:53:21 PM 43.4444 -95.1761 99° East 533 613 35,000  Level Minneapolis Center
Mon 05:54:23 PM 43.4217 -94.9767 99° East 532 612 35,000  Level Minneapolis Center
Mon 05:55:25 PM 43.3925 -94.7342 99° East 536 617 35,000  Level Minneapolis Center
Mon 05:56:26 PM 43.3678 -94.5328 100° East 534 615 35,000  Level Minneapolis Center
Mon 05:57:28 PM 43.3433 -94.3311 99° East 537 618 35,000  Level Minneapolis Center
Mon 05:58:30 PM 43.3167 -94.1186 100° East 540 621 35,000  Level Minneapolis Center
Mon 05:59:32 PM 43.2917 -93.9192 100° East 536 617 35,000  Level Minneapolis Center
Mon 06:00:33 PM 43.2669 -93.7208 100° East 533 613 35,000  Level Minneapolis Center
Mon 06:01:35 PM 43.2408 -93.5256 100° East 527 606 35,000  Level Minneapolis Center
Mon 06:02:37 PM 43.2153 -93.3283 100° East 528 608 35,000  Level Minneapolis Center
Mon 06:03:39 PM 43.1842 -93.0925 100° East 528 608 35,000  Level Minneapolis Center
Mon 06:04:40 PM 43.1586 -92.8972 100° East 528 608 35,000  Level Minneapolis Center
Mon 06:05:42 PM 43.1311 -92.7019 101° East 526 605 35,000 -48 Level Minneapolis Center
Mon 06:06:44 PM 43.1044 -92.5078 101° East 525 604 34,900 -529 Descending Minneapolis Center
Mon 06:07:58 PM 43.0700 -92.2739 101° East 528 608 33,800 -927 Descending Chicago Center
Mon 06:08:47 PM 43.0486 -92.1144 100° East 532 612 33,000 -1,081 Descending Minneapolis Center
Mon 06:09:49 PM 43.0156 -91.8739 101° East 536 617 31,800 -919 Descending Minneapolis Center
Mon 06:10:51 PM 42.9878 -91.6722 101° East 537 618 31,100 -387 Descending Minneapolis Center
Mon 06:11:53 PM 42.9606 -91.4689 100° East 537 618 31,000 -48 Descending Minneapolis Center
Mon 06:12:55 PM 42.9433 -91.2697 97° East 529 609 31,000  Level Minneapolis Center
Mon 06:13:56 PM 42.9264 -91.0706 97° East 529 609 31,000 -88 Level Minneapolis Center
Mon 06:15:12 PM 42.9053 -90.8347 97° East 527 606 30,800 -522 Descending Chicago Center
Mon 06:16:14 PM 42.8656 -90.6400 105° East 535 616 29,800 -1,065 Descending Chicago Center
Mon 06:17:16 PM 42.8217 -90.4086 104° East 528 608 28,600 -1,056 Descending Chicago Center
Mon 06:18:19 PM 42.7825 -90.2197 106° East 523 602 27,600 -1,008 Descending Chicago Center
Mon 06:19:21 PM 42.7461 -90.0325 105° East 517 595 26,500 -1,645 Descending Chicago Center
Mon 06:20:23 PM 42.7053 -89.8267 105° East 509 586 24,200 -2,274 Descending Chicago Center
Mon 06:21:25 PM 42.6683 -89.6433 105° East 505 581 21,800 -2,371 Descending Chicago Center
Mon 06:22:27 PM 42.6325 -89.4683 105° East 485 558 19,300 -2,371 Descending Chicago Center
Mon 06:23:29 PM 42.5986 -89.3044 106° East 454 522 16,900 -2,081 Descending Chicago Center
Mon 06:24:31 PM 42.5692 -89.1278 103° East 404 465 15,000 -1,452 Descending Chicago Center
Mon 06:25:33 PM 42.6061 -89.0117 67° East 336 387 13,900 -1,016 Descending Chicago Center
Mon 06:26:35 PM 42.6278 -88.9047 75° East 310 357 12,900 -774 Descending Chicago Center
Mon 06:27:37 PM 42.5733 -88.8019 126° Southeast 339 390 12,300 -774 Descending Chicago Center
Mon 06:28:39 PM 42.5136 -88.7092 131° Southeast 332 382 11,300 -1,016 Descending Chicago Center
Mon 06:29:41 PM 42.4456 -88.6061 132° Southeast 317 365 10,200 -1,016 Descending Chicago Center
Mon 06:30:43 PM 42.3886 -88.5197 132° Southeast 311 358 9,200 -581 Descending Chicago Center
Mon 06:31:45 PM 42.3647 -88.4147 107° East 299 344 9,000 -194 Descending Chicago Center
Mon 06:32:47 PM 42.3258 -88.3144 118° Southeast 304 350 8,800 -726 Descending Chicago Center
Mon 06:33:49 PM 42.2633 -88.2439 140° Southeast 295 339 7,500 -1,065 Descending Chicago Center
Mon 06:34:51 PM 42.2067 -88.1772 139° Southeast 280 322 6,600 -1,210 Descending Chicago Center
Mon 06:35:53 PM 42.1483 -88.1122 140° Southeast 236 272 5,000 -1,452 Descending Chicago Center
Mon 06:36:55 PM 42.1078 -88.0667 140° Southeast 204 235 3,600 -1,308 Descending Chicago Center
Mon 06:37:11 PM 42.1000 -88.0500 122° Southeast 194 223 3,300 -1,125 Descending Chicago TRACON

Login

Don't have an account? Register now (free) for customized features, flight alerts, and more!